createdAt,value
2024-01-06T00:01:35.746Z,94576.39
2024-01-06T00:04:04.255Z,94578.38
2024-01-06T00:06:32.576Z,94575.23
2024-01-06T00:09:00.848Z,94573.41
2024-01-06T00:11:29.092Z,94579.77
2024-01-06T00:13:57.253Z,94575.92
2024-01-06T00:16:28.098Z,94571.19
2024-01-06T00:18:57.782Z,94573.77
2024-01-06T00:21:26.242Z,94579.96
2024-01-06T00:23:54.423Z,94579.13
2024-01-06T00:26:22.787Z,94584.86
2024-01-06T00:28:51.100Z,94583.80
2024-01-06T00:31:19.676Z,94575.14
2024-01-06T00:33:48.587Z,94577.23
2024-01-06T00:36:17.242Z,94575.81
2024-01-06T00:38:45.458Z,94574.30
2024-01-06T00:41:13.586Z,94580.09
2024-01-06T00:43:41.678Z,94579.13
2024-01-06T00:46:09.976Z,94575.87
2024-01-06T00:48:38.260Z,94583.81
2024-01-06T00:51:07.192Z,94584.23
2024-01-06T00:53:35.735Z,94595.45
2024-01-06T00:56:04.029Z,94599.95
2024-01-06T00:58:32.130Z,94600.63
2024-01-06T01:01:00.512Z,94589.42
2024-01-06T01:03:29.009Z,94592.21
2024-01-06T01:05:57.859Z,94588.80
2024-01-06T01:08:26.359Z,94581.23
2024-01-06T01:10:54.458Z,94577.45
2024-01-06T01:13:22.601Z,94584.95
2024-01-06T01:15:50.993Z,94580.30
2024-01-06T01:18:19.426Z,94582.75
2024-01-06T01:20:47.744Z,94577.48
2024-01-06T01:23:16.031Z,94566.63
2024-01-06T01:25:44.086Z,94566.52
2024-01-06T01:28:12.294Z,94569.79
2024-01-06T01:30:40.535Z,94565.70
2024-01-06T01:33:09.447Z,94557.39
2024-01-06T01:35:37.738Z,94554.33
2024-01-06T01:38:05.912Z,94556.17
2024-01-06T01:40:33.962Z,94555.96
2024-01-06T01:43:02.124Z,94550.29
2024-01-06T01:45:30.287Z,94543.48
2024-01-06T01:47:58.767Z,94544.75
2024-01-06T01:50:28.959Z,94540.91
2024-01-06T01:52:57.245Z,94536.79
2024-01-06T01:55:25.924Z,94527.70
2024-01-06T01:57:54.260Z,94526.65
2024-01-06T02:00:24.183Z,94518.65
2024-01-06T02:02:54.101Z,94508.52
2024-01-06T02:05:22.418Z,94519.97
2024-01-06T02:07:52.307Z,94515.55
2024-01-06T02:10:20.736Z,94508.60
2024-01-06T02:12:49.961Z,94500.92
2024-01-06T02:15:19.398Z,94498.70
2024-01-06T02:17:47.576Z,94496.60
2024-01-06T02:20:17.490Z,94487.64
2024-01-06T02:22:45.672Z,94493.69
2024-01-06T02:25:14.660Z,94494.20
2024-01-06T02:27:42.763Z,94492.48
2024-01-06T02:30:11.440Z,94496.79
2024-01-06T02:32:39.819Z,94488.23
2024-01-06T02:35:09.516Z,94486.70
2024-01-06T02:37:37.731Z,94490.19
2024-01-06T02:40:06.389Z,94489.93
2024-01-06T02:42:34.687Z,94488.82
2024-01-06T02:45:02.857Z,94489.98
2024-01-06T02:47:30.994Z,94488.02
2024-01-06T02:49:59.243Z,94481.02
2024-01-06T02:52:27.353Z,94470.04
2024-01-06T02:54:55.435Z,94467.92
2024-01-06T02:57:23.610Z,94472.92
2024-01-06T02:59:51.763Z,94474.45
2024-01-06T03:02:19.990Z,94475.87
2024-01-06T03:04:48.216Z,94469.29
2024-01-06T03:07:16.429Z,94473.60
2024-01-06T03:09:44.840Z,94469.13
2024-01-06T03:12:13.149Z,94467.70
2024-01-06T03:14:41.523Z,94457.88
2024-01-06T03:17:11.744Z,94466.97
2024-01-06T03:19:40.832Z,94464.91
2024-01-06T03:22:09.097Z,94466.21
2024-01-06T03:24:37.209Z,94471.10
2024-01-06T03:27:05.451Z,94475.83
2024-01-06T03:29:33.501Z,94467.66
2024-01-06T03:32:01.604Z,94465.74
2024-01-06T03:34:29.864Z,94462.63
2024-01-06T03:36:58.286Z,94460.04
2024-01-06T03:39:26.527Z,94460.86
2024-01-06T03:41:55.022Z,94451.09
2024-01-06T03:44:23.336Z,94443.43
2024-01-06T03:46:51.390Z,94452.78
2024-01-06T03:49:21.961Z,94455.86
2024-01-06T03:51:50.376Z,94460.54
2024-01-06T03:54:19.174Z,94459.55
2024-01-06T03:56:47.357Z,94450.13
2024-01-06T03:59:15.505Z,94443.61
2024-01-06T04:01:43.670Z,94446.38
2024-01-06T04:04:12.006Z,94450.86
2024-01-06T04:06:40.178Z,94454.23
2024-01-06T04:09:08.457Z,94449.05
2024-01-06T04:11:36.691Z,94436.48
2024-01-06T04:14:05.004Z,94438.20
2024-01-06T04:16:33.173Z,94447.27
2024-01-06T04:19:01.366Z,94460.21
2024-01-06T04:21:29.727Z,94463.13
2024-01-06T04:23:57.964Z,94450.65
2024-01-06T04:26:26.477Z,94449.05
2024-01-06T04:28:54.692Z,94457.53
2024-01-06T04:31:23.023Z,94452.90
2024-01-06T04:33:51.317Z,94448.71
2024-01-06T04:36:19.987Z,94443.98
2024-01-06T04:38:48.137Z,94437.98
2024-01-06T04:41:16.283Z,94426.92
2024-01-06T04:43:44.591Z,94429.43
2024-01-06T04:46:13.029Z,94436.38
2024-01-06T04:48:42.609Z,94444.57
2024-01-06T04:51:12.566Z,94440.62
2024-01-06T04:53:41.189Z,94441.56
2024-01-06T04:56:09.366Z,94433.61
2024-01-06T04:58:37.598Z,94447.55
2024-01-06T05:01:06.304Z,94445.13
2024-01-06T05:03:34.578Z,94449.77
2024-01-06T05:06:02.808Z,94452.55
2024-01-06T05:08:32.285Z,94447.98
2024-01-06T05:11:01.641Z,94441.06
2024-01-06T05:13:29.755Z,94439.14
2024-01-06T05:15:58.005Z,94435.23
2024-01-06T05:18:26.484Z,94433.24
2024-01-06T05:20:55.646Z,94436.48
2024-01-06T05:23:24.011Z,94435.48
2024-01-06T05:25:52.206Z,94434.75
2024-01-06T05:28:20.416Z,94440.14
2024-01-06T05:30:48.806Z,94431.42
2024-01-06T05:33:18.034Z,94427.98
2024-01-06T05:35:46.467Z,94428.98
2024-01-06T05:38:14.792Z,94434.39
2024-01-06T05:40:42.851Z,94441.55
2024-01-06T05:43:11.115Z,94437.83
2024-01-06T05:45:41.749Z,94436.19
2024-01-06T05:48:11.570Z,94426.84
2024-01-06T05:50:41.035Z,94426.17
2024-01-06T05:53:09.622Z,94429.36
2024-01-06T05:55:38.089Z,94427.38
2024-01-06T05:58:06.350Z,94419.46
2024-01-06T06:00:34.461Z,94419.74
2024-01-06T06:03:02.665Z,94425.17
2024-01-06T06:05:30.910Z,94412.13
2024-01-06T06:07:59.027Z,94415.30
2024-01-06T06:10:41.665Z,94411.30
2024-01-06T06:13:12.829Z,94415.19
2024-01-06T06:15:41.114Z,94417.77
2024-01-06T06:18:10.289Z,94410.65
2024-01-06T06:20:39.843Z,94403.98
2024-01-06T06:23:08.681Z,94406.87
2024-01-06T06:25:40.023Z,94407.60
2024-01-06T06:28:08.143Z,94405.88
2024-01-06T06:30:36.530Z,94399.53
2024-01-06T06:33:05.077Z,94403.48
2024-01-06T06:35:33.336Z,94405.68
2024-01-06T06:38:01.555Z,94421.08
2024-01-06T06:40:30.185Z,94422.96
2024-01-06T06:42:58.567Z,94414.55
2024-01-06T06:45:26.897Z,94421.65
2024-01-06T06:47:55.094Z,94424.00
2024-01-06T06:50:23.327Z,94410.65
2024-01-06T06:52:51.886Z,94412.96
2024-01-06T06:55:20.524Z,94405.17
2024-01-06T06:57:48.773Z,94402.23
2024-01-06T07:00:18.440Z,94399.46
2024-01-06T07:02:47.047Z,94396.83
2024-01-06T07:05:15.266Z,94394.21
2024-01-06T07:07:47.817Z,94398.46
2024-01-06T07:10:16.686Z,94392.86
2024-01-06T07:12:44.866Z,94386.88
2024-01-06T07:15:13.154Z,94394.40
2024-01-06T07:17:41.333Z,94386.92
2024-01-06T07:20:10.611Z,94383.66
2024-01-06T07:22:39.094Z,94385.27
2024-01-06T07:25:08.722Z,94383.23
2024-01-06T07:27:37.054Z,94378.23
2024-01-06T07:30:06.157Z,94375.12
2024-01-06T07:32:34.426Z,94381.33
2024-01-06T07:35:07.378Z,94378.56
2024-01-06T07:37:36.390Z,94379.55
2024-01-06T07:40:04.921Z,94374.85
2024-01-06T07:42:33.188Z,94377.33
2024-01-06T07:45:01.437Z,94370.24
2024-01-06T07:47:29.700Z,94379.86
2024-01-06T07:49:58.697Z,94369.49
2024-01-06T07:52:27.077Z,94367.91
2024-01-06T07:54:55.265Z,94360.19
2024-01-06T07:57:23.593Z,94364.88
2024-01-06T07:59:52.017Z,94366.71
2024-01-06T08:02:20.250Z,94363.21
2024-01-06T08:04:48.570Z,94356.50
2024-01-06T08:07:16.761Z,94366.20
2024-01-06T08:09:45.039Z,94366.33
2024-01-06T08:12:13.472Z,94363.71
2024-01-06T08:14:41.693Z,94365.20
2024-01-06T08:17:09.845Z,94368.75
2024-01-06T08:19:37.939Z,94370.81
2024-01-06T08:22:06.145Z,94365.21
2024-01-06T08:24:35.060Z,94361.30
2024-01-06T08:27:03.415Z,94361.36
2024-01-06T08:29:32.191Z,94357.20
2024-01-06T08:32:00.503Z,94364.64
2024-01-06T08:34:32.030Z,94366.51
2024-01-06T08:37:01.579Z,94365.23
2024-01-06T08:39:29.740Z,94360.72
2024-01-06T08:42:00.856Z,94354.59
2024-01-06T08:44:30.043Z,94358.83
2024-01-06T08:46:58.284Z,94366.60
2024-01-06T08:49:26.414Z,94370.66
2024-01-06T08:51:54.776Z,94367.66
2024-01-06T08:54:23.063Z,94349.50
2024-01-06T08:56:51.310Z,94351.77
2024-01-06T08:59:19.398Z,94349.75
2024-01-06T09:01:50.292Z,94348.23
2024-01-06T09:04:20.024Z,94350.70
2024-01-06T09:06:48.382Z,94340.17
2024-01-06T09:09:17.658Z,94342.21
2024-01-06T09:11:45.735Z,94341.50
2024-01-06T09:14:13.796Z,94337.16
2024-01-06T09:16:41.999Z,94330.34
2024-01-06T09:19:10.385Z,94324.55
2024-01-06T09:21:38.844Z,94321.61
2024-01-06T09:24:07.928Z,94320.85
2024-01-06T09:26:36.958Z,94318.05
2024-01-06T09:29:05.184Z,94314.15
2024-01-06T09:31:34.067Z,94308.94
2024-01-06T09:34:05.283Z,94317.27
2024-01-06T09:36:33.541Z,94307.92
2024-01-06T09:39:01.896Z,94308.70
2024-01-06T09:41:30.427Z,94307.95
2024-01-06T09:43:58.843Z,94302.38
2024-01-06T09:46:30.374Z,94300.41
2024-01-06T09:49:00.019Z,94298.87
2024-01-06T09:51:30.109Z,94287.88
2024-01-06T09:54:01.259Z,94270.96
2024-01-06T09:56:31.370Z,94275.80
2024-01-06T09:58:59.578Z,94267.06
2024-01-06T10:01:27.997Z,94265.45
2024-01-06T10:03:56.321Z,94272.27
2024-01-06T10:06:24.502Z,94269.86
2024-01-06T10:08:54.188Z,94265.89
2024-01-06T10:11:25.390Z,94264.04
2024-01-06T10:13:55.365Z,94268.23
2024-01-06T10:16:23.947Z,94265.44
2024-01-06T10:18:54.609Z,94260.33
2024-01-06T10:21:23.965Z,94257.02
2024-01-06T10:23:52.623Z,94247.20
2024-01-06T10:26:20.911Z,94241.87
2024-01-06T10:28:52.437Z,94236.98
2024-01-06T10:31:20.973Z,94238.61
2024-01-06T10:33:49.791Z,94242.43
2024-01-06T10:36:19.043Z,94236.61
2024-01-06T10:38:47.239Z,94223.09
2024-01-06T10:41:17.804Z,94213.65
2024-01-06T10:43:48.292Z,94208.80
2024-01-06T10:46:19.756Z,94206.17
2024-01-06T10:48:50.168Z,94204.44
2024-01-06T10:51:20.465Z,94208.98
2024-01-06T10:53:51.344Z,94206.06
2024-01-06T10:56:20.443Z,94198.64
2024-01-06T10:58:50.780Z,94193.08
2024-01-06T11:01:28.046Z,94186.89
2024-01-06T11:04:00.638Z,94179.46
2024-01-06T11:06:29.370Z,94181.80
2024-01-06T11:09:08.053Z,94182.38
2024-01-06T11:11:38.369Z,94184.57
2024-01-06T11:14:27.168Z,94178.29
2024-01-06T11:16:56.180Z,94175.37
2024-01-06T11:19:41.279Z,94173.81
2024-01-06T11:22:32.794Z,94169.30
2024-01-06T11:25:09.615Z,94170.60
2024-01-06T11:27:38.142Z,94155.96
2024-01-06T11:30:08.246Z,94148.70
2024-01-06T11:32:40.479Z,94147.92
2024-01-06T11:35:12.043Z,94139.42
2024-01-06T11:37:43.635Z,94140.52
2024-01-06T11:40:24.077Z,94137.98
2024-01-06T11:42:58.313Z,94134.64
2024-01-06T11:45:27.223Z,94133.27
2024-01-06T11:48:01.479Z,94132.31
2024-01-06T11:50:34.096Z,94122.64
2024-01-06T11:53:05.360Z,94117.83
2024-01-06T11:55:33.990Z,94124.02
2024-01-06T11:58:04.892Z,94126.86
2024-01-06T12:00:41.731Z,94122.13
2024-01-06T12:03:10.546Z,94126.42
2024-01-06T12:05:39.368Z,94118.64
2024-01-06T12:08:08.994Z,94114.59
2024-01-06T12:10:38.716Z,94118.36
2024-01-06T12:13:12.241Z,94118.83
2024-01-06T12:15:41.901Z,94114.05
2024-01-06T12:18:10.416Z,94110.50
2024-01-06T12:20:38.863Z,94112.02
2024-01-06T12:23:08.278Z,94113.42
2024-01-06T12:25:40.254Z,94108.84
2024-01-06T12:28:09.983Z,94117.98
2024-01-06T12:30:40.288Z,94122.35
2024-01-06T12:33:08.873Z,94119.35
2024-01-06T12:35:37.734Z,94119.27
2024-01-06T12:38:08.558Z,94119.88
2024-01-06T12:40:38.675Z,94122.15
2024-01-06T12:43:07.337Z,94124.27
2024-01-06T12:45:36.036Z,94124.15
2024-01-06T12:48:04.764Z,94124.60
2024-01-06T12:50:33.074Z,94125.84
2024-01-06T12:53:01.302Z,94124.36
2024-01-06T12:55:29.852Z,94120.64
2024-01-06T12:57:58.287Z,94118.48
2024-01-06T13:00:27.198Z,94117.95
2024-01-06T13:02:55.379Z,94111.79
2024-01-06T13:05:24.225Z,94116.25
2024-01-06T13:07:55.555Z,94111.27
2024-01-06T13:10:23.936Z,94108.07
2024-01-06T13:12:53.835Z,94107.77
2024-01-06T13:15:22.626Z,94108.11
2024-01-06T13:17:53.098Z,94109.09
2024-01-06T13:20:21.936Z,94103.21
2024-01-06T13:22:52.508Z,94102.60
2024-01-06T13:25:21.346Z,94099.13
2024-01-06T13:27:50.143Z,94100.80
2024-01-06T13:30:19.368Z,94097.34
2024-01-06T13:32:49.975Z,94090.10
2024-01-06T13:35:18.580Z,94086.83
2024-01-06T13:37:50.193Z,94085.27
2024-01-06T13:40:22.382Z,94083.27
2024-01-06T13:42:54.220Z,94079.14
2024-01-06T13:45:23.048Z,94079.64
2024-01-06T13:47:51.211Z,94080.39
2024-01-06T13:50:20.547Z,94076.48
2024-01-06T13:52:49.593Z,94074.61
2024-01-06T13:55:17.936Z,94071.57
2024-01-06T13:57:46.287Z,94069.17
2024-01-06T14:00:21.558Z,94072.14
2024-01-06T14:02:58.245Z,94069.74
2024-01-06T14:05:30.599Z,94072.13
2024-01-06T14:07:58.707Z,94062.86
2024-01-06T14:10:27.706Z,94062.58
2024-01-06T14:12:56.248Z,94065.11
2024-01-06T14:15:24.753Z,94065.04
2024-01-06T14:17:53.615Z,94067.09
2024-01-06T14:20:21.834Z,94062.74
2024-01-06T14:22:50.646Z,94060.56
2024-01-06T14:25:19.936Z,94061.27
2024-01-06T14:27:50.314Z,94062.20
2024-01-06T14:30:21.364Z,94064.14
2024-01-06T14:32:49.956Z,94061.23
2024-01-06T14:35:18.312Z,94058.11
2024-01-06T14:37:46.938Z,94060.30
2024-01-06T14:40:15.278Z,94062.64
2024-01-06T14:42:44.004Z,94064.42
2024-01-06T14:45:13.048Z,94063.64
2024-01-06T14:47:41.782Z,94068.25
2024-01-06T14:50:10.157Z,94068.96
2024-01-06T14:52:38.286Z,94074.80
2024-01-06T14:55:07.146Z,94069.80
2024-01-06T14:57:35.559Z,94070.94
2024-01-06T15:00:04.301Z,94068.58
2024-01-06T15:02:32.613Z,94069.31
2024-01-06T15:05:01.236Z,94068.84
2024-01-06T15:07:32.766Z,94069.86
2024-01-06T15:10:05.328Z,94070.41
2024-01-06T15:12:33.837Z,94071.22
2024-01-06T15:15:02.320Z,94068.86
2024-01-06T15:17:30.482Z,94070.55
2024-01-06T15:19:58.646Z,94066.97
2024-01-06T15:22:29.963Z,94063.27
2024-01-06T15:24:58.929Z,94060.86
2024-01-06T15:27:29.159Z,94062.48
2024-01-06T15:29:57.684Z,94058.41
2024-01-06T15:32:25.859Z,94056.52
2024-01-06T15:34:54.358Z,94057.10
2024-01-06T15:37:22.560Z,94064.05
2024-01-06T15:39:50.799Z,94066.77
2024-01-06T15:42:19.011Z,94062.13
2024-01-06T15:44:47.192Z,94065.48
2024-01-06T15:47:15.609Z,94056.58
2024-01-06T15:49:43.760Z,94055.42
2024-01-06T15:52:12.197Z,94052.49
2024-01-06T15:54:40.486Z,94050.64
2024-01-06T15:57:10.332Z,94048.16
2024-01-06T15:59:38.503Z,94044.16
2024-01-06T16:02:06.557Z,94042.00
2024-01-06T16:04:34.685Z,94032.31
2024-01-06T16:07:03.772Z,94033.16
2024-01-06T16:09:31.902Z,94027.80
2024-01-06T16:12:00.096Z,94030.81
2024-01-06T16:14:31.493Z,94031.23
2024-01-06T16:17:05.050Z,94021.70
2024-01-06T16:19:34.143Z,94025.86
2024-01-06T16:22:14.538Z,94019.80
2024-01-06T16:24:46.273Z,94013.16
2024-01-06T16:27:15.488Z,94008.20
2024-01-06T16:29:44.331Z,94009.60
2024-01-06T16:32:12.520Z,94006.92
2024-01-06T16:34:43.880Z,94003.83
2024-01-06T16:37:14.157Z,94003.89
2024-01-06T16:39:49.329Z,94006.77
2024-01-06T16:42:17.769Z,94008.95
2024-01-06T16:44:45.887Z,94011.48
2024-01-06T16:47:16.770Z,94012.56
2024-01-06T16:49:44.991Z,94006.24
2024-01-06T16:52:13.358Z,94007.04
2024-01-06T16:54:41.444Z,94001.80
2024-01-06T16:57:09.722Z,93995.13
2024-01-06T16:59:38.309Z,93992.33
2024-01-06T17:02:07.185Z,93988.05
2024-01-06T17:04:36.454Z,93988.02
2024-01-06T17:07:05.779Z,93986.70
2024-01-06T17:09:34.364Z,93983.95
2024-01-06T17:12:03.146Z,93978.77
2024-01-06T17:14:33.134Z,93977.03
2024-01-06T17:17:01.311Z,93983.98
2024-01-06T17:19:29.689Z,93983.46
2024-01-06T17:21:58.154Z,93988.35
2024-01-06T17:24:26.587Z,93989.38
2024-01-06T17:26:54.995Z,93991.91
2024-01-06T17:29:26.384Z,93999.18
2024-01-06T17:31:56.692Z,94002.25
2024-01-06T17:34:25.377Z,94007.20
2024-01-06T17:36:55.792Z,94002.77
2024-01-06T17:39:23.953Z,93987.30
2024-01-06T17:41:59.152Z,93983.34
2024-01-06T17:44:29.041Z,93988.32
2024-01-06T17:46:58.065Z,93990.48
2024-01-06T17:49:26.622Z,93994.73
2024-01-06T17:51:55.022Z,93994.05
2024-01-06T17:54:26.019Z,93991.08
2024-01-06T17:56:55.597Z,93988.38
2024-01-06T17:59:23.676Z,93982.34
2024-01-06T18:01:52.191Z,93979.00
2024-01-06T18:04:20.646Z,93973.98
2024-01-06T18:06:49.800Z,93975.74
2024-01-06T18:09:22.117Z,93979.57
2024-01-06T18:11:54.089Z,93981.52
2024-01-06T18:14:22.216Z,93984.79
2024-01-06T18:16:54.113Z,93989.05
2024-01-06T18:19:23.228Z,93990.80
2024-01-06T18:21:54.134Z,93987.20
2024-01-06T18:24:23.267Z,93986.48
2024-01-06T18:26:52.244Z,93989.55
2024-01-06T18:29:22.825Z,93984.62
2024-01-06T18:31:51.407Z,93976.83
2024-01-06T18:34:19.972Z,93977.45
2024-01-06T18:36:48.413Z,93969.06
2024-01-06T18:39:18.677Z,93969.10
2024-01-06T18:41:47.469Z,93962.62
2024-01-06T18:44:22.082Z,93961.00
2024-01-06T18:46:50.399Z,93955.20
2024-01-06T18:49:20.470Z,93951.02
2024-01-06T18:51:51.242Z,93949.79
2024-01-06T18:54:26.905Z,93951.86
2024-01-06T18:56:59.678Z,93954.09
2024-01-06T18:59:27.882Z,93946.59
2024-01-06T19:01:57.436Z,93943.06
2024-01-06T19:04:25.817Z,93939.89
2024-01-06T19:06:54.242Z,93935.64
2024-01-06T19:09:22.463Z,93928.80
2024-01-06T19:11:50.721Z,93925.75
2024-01-06T19:14:18.946Z,93922.20
2024-01-06T19:16:47.713Z,93913.43
2024-01-06T19:19:17.346Z,93917.38
2024-01-06T19:21:46.853Z,93912.31
2024-01-06T19:24:23.817Z,93908.15
2024-01-06T19:26:56.728Z,93906.54
2024-01-06T19:29:27.208Z,93905.13
2024-01-06T19:31:55.769Z,93902.72
2024-01-06T19:34:24.194Z,93896.85
2024-01-06T19:36:52.709Z,93898.17
2024-01-06T19:39:20.928Z,93897.08
2024-01-06T19:41:49.137Z,93896.01
2024-01-06T19:44:18.356Z,93895.04
2024-01-06T19:46:46.595Z,93887.54
2024-01-06T19:49:14.838Z,93884.57
2024-01-06T19:51:43.175Z,93889.59
2024-01-06T19:54:13.460Z,93886.45
2024-01-06T19:56:42.815Z,93885.80
2024-01-06T19:59:12.128Z,93884.23
2024-01-06T20:01:40.282Z,93881.82
2024-01-06T20:04:08.833Z,93881.73
2024-01-06T20:06:37.137Z,93880.09
2024-01-06T20:09:07.784Z,93881.77
2024-01-06T20:11:35.855Z,93885.87
2024-01-06T20:14:04.156Z,93880.16
2024-01-06T20:16:32.391Z,93871.45
2024-01-06T20:19:00.637Z,93867.52
2024-01-06T20:21:28.972Z,93866.36
2024-01-06T20:23:57.169Z,93865.86
2024-01-06T20:26:27.245Z,93866.81
2024-01-06T20:28:55.991Z,93869.66
2024-01-06T20:31:24.354Z,93868.50
2024-01-06T20:33:53.356Z,93874.80
2024-01-06T20:36:21.817Z,93862.95
2024-01-06T20:38:53.032Z,93860.73
2024-01-06T20:41:22.369Z,93862.44
2024-01-06T20:43:50.537Z,93863.84
2024-01-06T20:46:19.966Z,93858.79
2024-01-06T20:48:48.867Z,93854.90
2024-01-06T20:51:18.593Z,93855.47
2024-01-06T20:53:48.644Z,93851.13
2024-01-06T20:56:18.057Z,93846.96
2024-01-06T20:58:46.400Z,93849.31
2024-01-06T21:01:14.690Z,93849.11
2024-01-06T21:03:43.289Z,93847.12
2024-01-06T21:06:11.960Z,93849.02
2024-01-06T21:08:40.142Z,93850.31
2024-01-06T21:11:10.594Z,93853.55
2024-01-06T21:13:38.787Z,93846.21
2024-01-06T21:16:07.102Z,93842.80
2024-01-06T21:18:37.812Z,93838.48
2024-01-06T21:21:06.426Z,93830.20
2024-01-06T21:23:40.669Z,93832.11
2024-01-06T21:26:15.909Z,93835.16
2024-01-06T21:28:43.992Z,93829.64
2024-01-06T21:31:12.296Z,93824.45
2024-01-06T21:33:40.638Z,93830.06
2024-01-06T21:36:09.010Z,93824.67
2024-01-06T21:38:37.305Z,93819.42
2024-01-06T21:41:05.464Z,93823.27
2024-01-06T21:43:33.583Z,93812.73
2024-01-06T21:46:01.944Z,93813.71
2024-01-06T21:48:31.097Z,93831.56
2024-01-06T21:50:59.521Z,93812.79
2024-01-06T21:53:27.680Z,93810.01
2024-01-06T21:55:55.988Z,93822.50
2024-01-06T21:58:24.122Z,93802.77
2024-01-06T22:00:52.691Z,93789.36
2024-01-06T22:03:21.051Z,93795.45
2024-01-06T22:05:49.588Z,93795.94
2024-01-06T22:08:17.999Z,93792.32
2024-01-06T22:10:46.071Z,93779.88
2024-01-06T22:13:15.732Z,93778.66
2024-01-06T22:15:44.141Z,93777.02
2024-01-06T22:18:12.807Z,93768.55
2024-01-06T22:20:40.990Z,93764.36
2024-01-06T22:23:09.093Z,93769.05
2024-01-06T22:25:37.300Z,93770.72
2024-01-06T22:28:07.618Z,93771.71
2024-01-06T22:30:37.442Z,93779.19
2024-01-06T22:33:06.046Z,93771.83
2024-01-06T22:35:34.284Z,93770.94
2024-01-06T22:38:02.424Z,93771.91
2024-01-06T22:40:30.682Z,93776.09
2024-01-06T22:42:58.835Z,93760.60
2024-01-06T22:45:29.310Z,93754.48
2024-01-06T22:47:58.667Z,93759.77
2024-01-06T22:50:27.093Z,93770.42
2024-01-06T22:52:55.275Z,93765.09
2024-01-06T22:55:24.181Z,93763.75
2024-01-06T22:57:52.480Z,93760.40
2024-01-06T23:00:29.280Z,93754.14
2024-01-06T23:02:57.853Z,93749.42
2024-01-06T23:05:26.067Z,93749.25
2024-01-06T23:07:54.905Z,93746.95
2024-01-06T23:10:23.178Z,93750.40
2024-01-06T23:12:51.531Z,93748.70
2024-01-06T23:15:19.985Z,93745.63
2024-01-06T23:17:48.318Z,93740.60
2024-01-06T23:20:17.183Z,93737.38
2024-01-06T23:22:45.382Z,93730.20
2024-01-06T23:25:14.028Z,93727.86
2024-01-06T23:27:42.281Z,93727.73
2024-01-06T23:30:11.540Z,93723.70
2024-01-06T23:32:39.863Z,93720.08
2024-01-06T23:35:08.448Z,93721.64
2024-01-06T23:37:40.226Z,93716.36
2024-01-06T23:40:11.041Z,93710.80
2024-01-06T23:42:39.262Z,93707.05
2024-01-06T23:45:07.912Z,93705.82
2024-01-06T23:47:36.208Z,93702.04
2024-01-06T23:50:06.166Z,93698.39
2024-01-06T23:52:34.388Z,93698.46
2024-01-06T23:55:02.741Z,93696.38
2024-01-06T23:57:31.066Z,93690.30
2024-01-06T23:59:59.235Z,93685.13
